createdAt,value
2018-04-24T00:01:37.589Z,12.70
2018-04-24T00:04:05.879Z,12.70
2018-04-24T00:06:34.160Z,12.60
2018-04-24T00:09:02.412Z,12.70
2018-04-24T00:11:30.691Z,12.70
2018-04-24T00:13:59.669Z,12.70
2018-04-24T00:16:29.372Z,12.80
2018-04-24T00:18:58.247Z,12.70
2018-04-24T00:21:26.567Z,12.80
2018-04-24T00:23:54.847Z,12.80
2018-04-24T00:26:23.117Z,12.80
2018-04-24T00:28:51.409Z,12.80
2018-04-24T00:31:19.670Z,12.80
2018-04-24T00:33:47.964Z,12.80
2018-04-24T00:36:16.260Z,12.80
2018-04-24T00:38:44.516Z,12.80
2018-04-24T00:41:12.041Z,12.80
2018-04-24T00:43:40.296Z,12.50
2018-04-24T00:46:08.573Z,12.50
2018-04-24T00:48:36.833Z,12.70
2018-04-24T00:51:05.117Z,12.60
2018-04-24T00:53:41.093Z,12.50
2018-04-24T00:56:09.348Z,12.50
2018-04-24T00:58:37.643Z,12.50
2018-04-24T01:01:05.929Z,12.50
2018-04-24T01:03:35.130Z,12.30
2018-04-24T01:06:03.444Z,12.30
2018-04-24T01:08:31.691Z,12.30
2018-04-24T01:10:59.978Z,12.30
2018-04-24T01:13:30.743Z,12.10
2018-04-24T01:15:59.648Z,12.10
2018-04-24T01:18:27.939Z,12.10
2018-04-24T01:20:56.235Z,12.10
2018-04-24T01:23:24.488Z,12.20
2018-04-24T01:25:52.860Z,12.20
2018-04-24T01:28:21.043Z,12.20
2018-04-24T01:30:49.314Z,12.20
2018-04-24T01:33:17.625Z,12.10
2018-04-24T01:35:45.924Z,12.10
2018-04-24T01:38:14.199Z,12.10
2018-04-24T01:40:43.679Z,12.10
2018-04-24T01:43:11.948Z,12.10
2018-04-24T01:45:40.212Z,11.90
2018-04-24T01:48:08.492Z,11.90
2018-04-24T01:50:36.745Z,11.90
2018-04-24T01:53:05.045Z,12.00
2018-04-24T01:55:33.313Z,12.00
2018-04-24T01:58:01.626Z,11.90
2018-04-24T02:00:29.906Z,11.90
2018-04-24T02:02:59.124Z,12.00
2018-04-24T02:05:28.061Z,11.90
2018-04-24T02:07:56.362Z,11.80
2018-04-24T02:10:24.617Z,11.80
2018-04-24T02:12:52.890Z,11.80
2018-04-24T02:15:21.178Z,11.80
2018-04-24T02:17:49.468Z,11.70
2018-04-24T02:20:17.723Z,11.70
2018-04-24T02:22:46.030Z,11.70
2018-04-24T02:25:14.302Z,11.60
2018-04-24T02:27:42.756Z,11.60
2018-04-24T02:30:11.058Z,11.70
2018-04-24T02:32:39.360Z,11.60
2018-04-24T02:35:07.650Z,11.70
2018-04-24T02:37:35.913Z,11.70
2018-04-24T02:40:04.195Z,11.80
2018-04-24T02:42:32.504Z,11.60
2018-04-24T02:45:02.669Z,11.60
2018-04-24T02:47:30.957Z,11.50
2018-04-24T02:49:58.504Z,11.50
2018-04-24T02:52:26.801Z,11.50
2018-04-24T02:54:55.069Z,11.50
2018-04-24T02:57:23.373Z,11.50
2018-04-24T02:59:51.630Z,11.50
2018-04-24T03:02:19.888Z,11.60
2018-04-24T03:04:48.170Z,11.50
2018-04-24T03:07:16.440Z,11.40
2018-04-24T03:09:43.975Z,11.40
2018-04-24T03:12:13.426Z,11.40
2018-04-24T03:14:41.726Z,11.40
2018-04-24T03:17:09.988Z,11.30
2018-04-24T03:19:38.288Z,11.30
2018-04-24T03:22:06.552Z,11.20
2018-04-24T03:24:34.813Z,11.20
2018-04-24T03:27:03.108Z,11.20
2018-04-24T03:29:31.369Z,11.20
2018-04-24T03:31:59.630Z,11.20
2018-04-24T03:34:27.976Z,11.10
2018-04-24T03:36:56.266Z,11.20
2018-04-24T03:39:24.520Z,11.20
2018-04-24T03:41:52.054Z,11.10
2018-04-24T03:44:20.343Z,11.30
2018-04-24T03:46:48.613Z,11.10
2018-04-24T03:49:16.909Z,11.00
2018-04-24T03:51:45.230Z,11.00
2018-04-24T03:54:19.805Z,11.00
2018-04-24T03:56:48.111Z,11.00
2018-04-24T03:59:16.364Z,11.20
2018-04-24T04:01:43.864Z,11.10
2018-04-24T04:04:13.556Z,11.20
2018-04-24T04:06:42.864Z,11.20
2018-04-24T04:09:11.183Z,11.20
2018-04-24T04:11:39.451Z,11.20
2018-04-24T04:14:07.709Z,11.10
2018-04-24T04:16:36.001Z,11.10
2018-04-24T04:19:16.205Z,11.10
2018-04-24T04:22:13.015Z,11.20
2018-04-24T04:24:45.830Z,11.20
2018-04-24T04:27:14.127Z,11.20
2018-04-24T04:29:43.403Z,11.30
2018-04-24T04:32:10.936Z,11.30
2018-04-24T04:34:39.199Z,11.30
2018-04-24T04:37:07.461Z,11.30
2018-04-24T04:39:35.754Z,11.30
2018-04-24T04:42:04.046Z,11.20
2018-04-24T04:44:32.328Z,11.20
2018-04-24T04:47:00.623Z,11.30
2018-04-24T04:49:30.235Z,11.40
2018-04-24T04:51:58.501Z,11.40
2018-04-24T04:54:26.784Z,11.40
2018-04-24T04:56:55.042Z,11.40
2018-04-24T04:59:23.354Z,11.30
2018-04-24T05:01:51.609Z,11.50
2018-04-24T05:04:19.864Z,11.50
2018-04-24T05:06:48.154Z,11.50
2018-04-24T05:09:16.428Z,11.60
2018-04-24T05:11:43.953Z,11.50
2018-04-24T05:14:13.113Z,11.40
2018-04-24T05:16:42.166Z,11.50
2018-04-24T05:19:10.424Z,11.50
2018-04-24T05:21:38.672Z,11.60
2018-04-24T05:24:06.992Z,11.50
2018-04-24T05:26:35.328Z,11.50
2018-04-24T05:29:03.531Z,11.60
2018-04-24T05:31:31.834Z,11.70
2018-04-24T05:34:00.104Z,11.80
2018-04-24T05:36:29.364Z,11.60
2018-04-24T05:38:56.889Z,11.60
2018-04-24T05:41:25.158Z,11.50
2018-04-24T05:43:53.413Z,11.50
2018-04-24T05:46:21.700Z,11.60
2018-04-24T05:48:50.004Z,11.60
2018-04-24T05:51:18.333Z,11.60
2018-04-24T05:53:46.617Z,11.60
2018-04-24T05:56:14.877Z,11.70
2018-04-24T05:58:44.622Z,11.80
2018-04-24T06:01:13.986Z,11.80
2018-04-24T06:03:43.114Z,11.80
2018-04-24T06:06:11.369Z,11.80
2018-04-24T06:08:39.761Z,11.80
2018-04-24T06:11:07.982Z,11.80
2018-04-24T06:13:36.237Z,11.90
2018-04-24T06:16:10.300Z,11.90
2018-04-24T06:18:38.562Z,12.00
2018-04-24T06:21:06.846Z,12.00
2018-04-24T06:23:35.164Z,12.00
2018-04-24T06:26:03.639Z,11.90
2018-04-24T06:28:31.256Z,11.90
2018-04-24T06:31:00.527Z,11.90
2018-04-24T06:33:29.433Z,12.00
2018-04-24T06:35:57.019Z,12.00
2018-04-24T06:38:25.242Z,12.10
2018-04-24T06:40:53.542Z,12.10
2018-04-24T06:43:22.262Z,12.10
2018-04-24T06:45:50.560Z,12.10
2018-04-24T06:48:18.830Z,12.20
2018-04-24T06:50:47.176Z,12.20
2018-04-24T06:53:15.442Z,12.20
2018-04-24T06:55:43.756Z,12.00
2018-04-24T06:58:13.128Z,12.00
2018-04-24T07:00:43.199Z,12.10
2018-04-24T07:03:12.553Z,12.10
2018-04-24T07:05:40.849Z,12.10
2018-04-24T07:08:08.351Z,12.10
2018-04-24T07:10:36.605Z,12.10
2018-04-24T07:13:04.141Z,12.00
2018-04-24T07:15:32.439Z,12.10
2018-04-24T07:18:00.718Z,12.10
2018-04-24T07:20:30.204Z,12.00
2018-04-24T07:22:58.481Z,12.10
2018-04-24T07:25:26.778Z,12.10
2018-04-24T07:27:55.069Z,12.20
2018-04-24T07:30:23.352Z,12.30
2018-04-24T07:32:51.713Z,12.30
2018-04-24T07:35:19.958Z,12.40
2018-04-24T07:37:48.255Z,12.30
2018-04-24T07:40:16.508Z,12.20
2018-04-24T07:42:44.819Z,12.40
2018-04-24T07:45:14.122Z,12.40
2018-04-24T07:47:43.447Z,12.40
2018-04-24T07:50:11.700Z,12.40
2018-04-24T07:52:39.968Z,12.50
2018-04-24T07:55:08.262Z,12.40
2018-04-24T07:57:36.533Z,12.50
2018-04-24T08:00:04.833Z,12.60
2018-04-24T08:02:33.137Z,12.50
2018-04-24T08:05:01.425Z,12.70
2018-04-24T08:07:29.715Z,12.70
2018-04-24T08:09:58.543Z,12.70
2018-04-24T08:12:26.845Z,12.60
2018-04-24T08:14:55.105Z,12.70
2018-04-24T08:17:23.418Z,12.70
2018-04-24T08:19:50.913Z,12.60
2018-04-24T08:22:19.198Z,12.60
2018-04-24T08:24:47.458Z,12.70
2018-04-24T08:27:15.761Z,12.70
2018-04-24T08:29:44.014Z,12.70
2018-04-24T08:32:13.872Z,12.70
2018-04-24T08:34:43.179Z,12.90
2018-04-24T08:37:12.694Z,12.90
2018-04-24T08:39:40.989Z,12.90
2018-04-24T08:42:09.300Z,12.90
2018-04-24T08:44:37.592Z,12.90
2018-04-24T08:47:05.083Z,12.90
2018-04-24T08:49:33.345Z,13.00
2018-04-24T08:52:01.630Z,12.90
2018-04-24T08:54:29.900Z,12.90
2018-04-24T08:56:57.770Z,12.90
2018-04-24T08:59:26.030Z,13.00
2018-04-24T09:01:54.324Z,13.20
2018-04-24T09:04:23.534Z,13.20
2018-04-24T09:06:51.830Z,13.30
2018-04-24T09:09:20.091Z,13.30
2018-04-24T09:11:48.396Z,13.20
2018-04-24T09:14:16.656Z,13.30
2018-04-24T09:16:44.973Z,13.40
2018-04-24T09:19:13.751Z,13.50
2018-04-24T09:21:43.005Z,13.40
2018-04-24T09:24:11.301Z,13.40
2018-04-24T09:26:39.565Z,13.40
2018-04-24T09:29:07.880Z,13.40
2018-04-24T09:31:41.711Z,13.40
2018-04-24T09:34:09.968Z,13.40
2018-04-24T09:36:38.278Z,13.40
2018-04-24T09:39:06.548Z,13.50
2018-04-24T09:41:34.801Z,13.30
2018-04-24T09:44:03.159Z,13.30
2018-04-24T09:46:31.413Z,13.20
2018-04-24T09:48:59.747Z,13.20
2018-04-24T09:51:28.902Z,13.20
2018-04-24T09:53:57.194Z,13.40
2018-04-24T09:56:24.696Z,13.40
2018-04-24T09:58:52.988Z,13.30
2018-04-24T10:01:21.249Z,13.40
2018-04-24T10:03:49.535Z,13.40
2018-04-24T10:06:17.035Z,13.40
2018-04-24T10:08:45.336Z,13.40
2018-04-24T10:11:14.346Z,13.30
2018-04-24T10:13:42.620Z,13.30
2018-04-24T10:16:10.909Z,13.40
2018-04-24T10:18:39.161Z,13.40
2018-04-24T10:21:11.007Z,13.40
2018-04-24T10:23:39.293Z,13.40
2018-04-24T10:26:07.657Z,13.50
2018-04-24T10:28:35.945Z,13.50
2018-04-24T10:31:04.217Z,13.50
2018-04-24T10:33:33.505Z,13.40
2018-04-24T10:36:01.769Z,13.50
2018-04-24T10:38:30.069Z,13.60
2018-04-24T10:40:59.282Z,13.60
2018-04-24T10:43:28.257Z,13.60
2018-04-24T10:45:56.568Z,13.50
2018-04-24T10:48:24.835Z,13.50
2018-04-24T10:50:53.099Z,13.50
2018-04-24T10:53:21.394Z,13.40
2018-04-24T10:55:49.701Z,13.40
2018-04-24T10:58:17.999Z,13.50
2018-04-24T11:00:45.595Z,13.40
2018-04-24T11:03:13.814Z,13.60
2018-04-24T11:05:42.554Z,13.80
2018-04-24T11:08:10.840Z,13.80
2018-04-24T11:10:39.103Z,14.00
2018-04-24T11:13:07.426Z,13.90
2018-04-24T11:15:35.685Z,13.90
2018-04-24T11:18:03.949Z,13.90
2018-04-24T11:20:32.245Z,13.90
2018-04-24T11:23:00.517Z,13.80
2018-04-24T11:25:28.812Z,13.80
2018-04-24T11:27:57.080Z,13.70
2018-04-24T11:30:25.418Z,13.90
2018-04-24T11:32:53.665Z,14.10
2018-04-24T11:35:21.962Z,14.20
2018-04-24T11:37:50.265Z,14.20
2018-04-24T11:40:18.561Z,14.20
2018-04-24T11:42:46.846Z,14.20
2018-04-24T11:45:15.130Z,14.30
2018-04-24T11:47:46.668Z,14.40
2018-04-24T11:50:14.953Z,14.30
2018-04-24T11:52:44.226Z,14.40
2018-04-24T11:55:13.565Z,14.60
2018-04-24T11:57:42.868Z,14.50
2018-04-24T12:00:11.131Z,14.40
2018-04-24T12:02:39.445Z,14.40
2018-04-24T12:05:07.707Z,14.30
2018-04-24T12:07:36.053Z,14.50
2018-04-24T12:10:04.396Z,14.50
2018-04-24T12:12:32.625Z,14.50
2018-04-24T12:15:00.925Z,14.60
2018-04-24T12:17:30.174Z,14.70
2018-04-24T12:19:59.316Z,14.70
2018-04-24T12:22:27.689Z,14.90
2018-04-24T12:24:56.006Z,14.90
2018-04-24T12:27:24.278Z,14.90
2018-04-24T12:29:52.541Z,14.90
2018-04-24T12:32:20.061Z,14.90
2018-04-24T12:34:48.321Z,15.00
2018-04-24T12:37:16.623Z,15.10
2018-04-24T12:39:44.906Z,15.20
2018-04-24T12:42:14.459Z,15.30
2018-04-24T12:44:42.729Z,15.30
2018-04-24T12:47:11.027Z,15.30
2018-04-24T12:49:39.297Z,15.10
2018-04-24T12:52:07.585Z,15.20
2018-04-24T12:54:35.888Z,15.30
2018-04-24T12:57:03.393Z,15.30
2018-04-24T12:59:31.676Z,15.40
2018-04-24T13:01:59.987Z,15.50
2018-04-24T13:04:29.033Z,15.50
2018-04-24T13:06:57.328Z,15.50
2018-04-24T13:09:25.645Z,15.60
2018-04-24T13:11:53.921Z,15.70
2018-04-24T13:14:22.220Z,15.60
2018-04-24T13:16:50.508Z,15.70
2018-04-24T13:19:18.783Z,15.70
2018-04-24T13:21:47.090Z,15.60
2018-04-24T13:24:15.361Z,15.70
2018-04-24T13:26:44.861Z,15.60
2018-04-24T13:29:14.169Z,15.80
2018-04-24T13:31:43.321Z,15.80
2018-04-24T13:34:12.397Z,15.90
2018-04-24T13:36:40.674Z,15.90
2018-04-24T13:39:08.987Z,16.00
2018-04-24T13:41:37.274Z,15.90
2018-04-24T13:44:05.560Z,15.90
2018-04-24T13:46:33.868Z,16.00
2018-04-24T13:49:02.133Z,16.10
2018-04-24T13:51:30.431Z,16.20
2018-04-24T13:53:58.702Z,16.30
2018-04-24T13:56:27.060Z,16.20
2018-04-24T13:58:54.607Z,16.20
2018-04-24T14:01:22.868Z,16.10
2018-04-24T14:03:51.156Z,16.20
2018-04-24T14:06:28.594Z,16.30
2018-04-24T14:08:59.882Z,16.20
2018-04-24T14:11:28.261Z,16.30
2018-04-24T14:13:56.566Z,16.10
2018-04-24T14:16:40.896Z,16.10
2018-04-24T14:19:09.165Z,16.10
2018-04-24T14:21:37.565Z,16.10
2018-04-24T14:24:05.750Z,16.20
2018-04-24T14:26:40.183Z,16.30
2018-04-24T14:29:07.685Z,16.30
2018-04-24T14:31:36.001Z,16.40
2018-04-24T14:34:04.299Z,16.50
2018-04-24T14:36:33.543Z,16.40
2018-04-24T14:39:01.049Z,16.40
2018-04-24T14:41:30.515Z,16.50
2018-04-24T14:43:58.810Z,16.40
2018-04-24T14:46:31.598Z,16.40
2018-04-24T14:48:59.881Z,16.50
2018-04-24T14:51:28.209Z,16.50
2018-04-24T14:53:56.527Z,16.50
2018-04-24T14:56:25.773Z,16.50
2018-04-24T14:58:54.064Z,16.60
2018-04-24T15:01:22.369Z,16.50
2018-04-24T15:03:50.701Z,16.40
2018-04-24T15:06:18.982Z,16.50
2018-04-24T15:08:47.292Z,16.40
2018-04-24T15:11:15.586Z,16.50
2018-04-24T15:13:43.874Z,16.70
2018-04-24T15:16:13.463Z,16.70
2018-04-24T15:18:41.743Z,16.70
2018-04-24T15:21:10.050Z,16.70
2018-04-24T15:23:43.734Z,16.80
2018-04-24T15:26:13.045Z,16.90
2018-04-24T15:28:46.298Z,17.00
2018-04-24T15:31:14.667Z,17.10
2018-04-24T15:33:43.789Z,17.10
2018-04-24T15:36:12.575Z,17.20
2018-04-24T15:38:40.849Z,17.10
2018-04-24T15:41:09.165Z,17.20
2018-04-24T15:43:43.926Z,17.20
2018-04-24T15:46:12.842Z,17.40
2018-04-24T15:48:46.021Z,17.20
2018-04-24T15:51:14.328Z,17.00
2018-04-24T15:53:44.567Z,17.10
2018-04-24T15:56:13.281Z,17.10
2018-04-24T15:58:48.919Z,17.30
2018-04-24T16:01:17.216Z,17.20
2018-04-24T16:03:45.485Z,17.20
2018-04-24T16:06:13.746Z,17.10
2018-04-24T16:08:43.139Z,17.10
2018-04-24T16:11:12.203Z,17.00
2018-04-24T16:13:42.086Z,17.00
2018-04-24T16:16:10.357Z,17.10
2018-04-24T16:18:38.649Z,17.20
2018-04-24T16:21:06.920Z,17.00
2018-04-24T16:23:39.721Z,16.90
2018-04-24T16:26:07.997Z,17.00
2018-04-24T16:28:36.301Z,16.90
2018-04-24T16:31:04.557Z,17.00
2018-04-24T16:33:34.780Z,17.00
2018-04-24T16:36:03.085Z,17.00
2018-04-24T16:38:31.373Z,17.00
2018-04-24T16:41:01.124Z,16.90
2018-04-24T16:43:30.687Z,16.90
2018-04-24T16:45:59.612Z,16.90
2018-04-24T16:48:28.278Z,16.80
2018-04-24T16:50:56.605Z,16.80
2018-04-24T16:53:24.896Z,16.80
2018-04-24T16:55:53.170Z,16.70
2018-04-24T16:58:21.466Z,16.60
2018-04-24T17:00:49.768Z,16.70
2018-04-24T17:03:18.071Z,16.50
2018-04-24T17:05:46.346Z,16.60
2018-04-24T17:08:14.672Z,16.50
2018-04-24T17:10:43.657Z,16.70
2018-04-24T17:13:12.696Z,16.60
2018-04-24T17:15:40.982Z,16.50
2018-04-24T17:18:09.277Z,16.50
2018-04-24T17:20:37.553Z,16.50
2018-04-24T17:23:05.866Z,16.50
2018-04-24T17:25:34.203Z,16.40
2018-04-24T17:28:02.431Z,16.40
2018-04-24T17:30:30.684Z,16.40
2018-04-24T17:32:59.901Z,16.40
2018-04-24T17:35:28.293Z,16.30
2018-04-24T17:37:57.159Z,16.30
2018-04-24T17:40:25.464Z,16.20
2018-04-24T17:42:53.777Z,16.10
2018-04-24T17:45:22.065Z,16.20
2018-04-24T17:47:50.367Z,16.10
2018-04-24T17:50:18.681Z,16.20
2018-04-24T17:52:46.943Z,16.20
2018-04-24T17:55:15.205Z,16.20
2018-04-24T17:57:44.473Z,16.10
2018-04-24T18:00:12.752Z,16.10
2018-04-24T18:02:41.068Z,16.10
2018-04-24T18:05:09.339Z,16.10
2018-04-24T18:07:36.885Z,16.00
2018-04-24T18:10:05.137Z,16.00
2018-04-24T18:12:33.413Z,16.00
2018-04-24T18:15:01.716Z,16.00
2018-04-24T18:17:30.018Z,16.00
2018-04-24T18:19:57.526Z,16.00
2018-04-24T18:22:32.475Z,15.90
2018-04-24T18:25:00.742Z,15.90
2018-04-24T18:27:29.621Z,15.90
2018-04-24T18:29:58.296Z,15.80
2018-04-24T18:32:26.625Z,15.80
2018-04-24T18:34:55.268Z,15.80
2018-04-24T18:37:23.541Z,15.80
2018-04-24T18:39:51.817Z,15.80
2018-04-24T18:42:19.370Z,15.80
2018-04-24T18:44:47.641Z,15.80
2018-04-24T18:47:15.934Z,15.80
2018-04-24T18:49:44.237Z,15.70
2018-04-24T18:52:12.541Z,15.60
2018-04-24T18:54:40.824Z,15.60
2018-04-24T18:57:09.133Z,15.60
2018-04-24T18:59:37.439Z,15.50
2018-04-24T19:02:04.982Z,15.50
2018-04-24T19:04:33.266Z,15.50
2018-04-24T19:07:01.529Z,15.50
2018-04-24T19:09:32.939Z,15.60
2018-04-24T19:12:01.237Z,15.40
2018-04-24T19:14:30.253Z,15.50
2018-04-24T19:16:59.559Z,15.50
2018-04-24T19:19:28.301Z,15.50
2018-04-24T19:21:56.605Z,15.50
2018-04-24T19:24:30.522Z,15.40
2018-04-24T19:26:58.817Z,15.40
2018-04-24T19:29:26.318Z,15.40
2018-04-24T19:32:00.340Z,15.30
2018-04-24T19:34:29.142Z,15.40
2018-04-24T19:36:57.463Z,15.30
2018-04-24T19:39:31.271Z,15.30
2018-04-24T19:42:00.281Z,15.30
2018-04-24T19:44:29.441Z,15.30
2018-04-24T19:46:58.292Z,15.40
2018-04-24T19:49:32.374Z,15.30
2018-04-24T19:52:00.584Z,15.30
2018-04-24T19:54:29.278Z,15.30
2018-04-24T19:56:57.574Z,15.30
2018-04-24T19:59:26.794Z,15.30
2018-04-24T20:01:55.085Z,15.30
2018-04-24T20:04:23.345Z,15.30
2018-04-24T20:06:51.670Z,15.30
2018-04-24T20:09:19.949Z,15.30
2018-04-24T20:11:48.204Z,15.30
2018-04-24T20:14:16.515Z,15.20
2018-04-24T20:16:44.791Z,15.10
2018-04-24T20:19:13.865Z,15.10
2018-04-24T20:21:43.004Z,15.10
2018-04-24T20:24:11.270Z,15.00
2018-04-24T20:26:39.577Z,15.00
2018-04-24T20:29:07.872Z,15.00
2018-04-24T20:31:36.177Z,15.00
2018-04-24T20:34:04.470Z,15.00
2018-04-24T20:36:32.741Z,15.10
2018-04-24T20:39:01.062Z,15.00
2018-04-24T20:41:30.126Z,15.00
2018-04-24T20:43:59.161Z,14.90
2018-04-24T20:46:27.484Z,14.90
2018-04-24T20:48:55.750Z,14.90
2018-04-24T20:51:24.054Z,14.90
2018-04-24T20:53:52.365Z,14.90
2018-04-24T20:56:20.658Z,14.90
2018-04-24T20:58:48.935Z,14.80
2018-04-24T21:01:17.245Z,14.80
2018-04-24T21:03:45.527Z,14.80
2018-04-24T21:06:13.809Z,14.80
2018-04-24T21:08:42.590Z,14.80
2018-04-24T21:11:12.828Z,14.90
2018-04-24T21:13:41.093Z,14.90
2018-04-24T21:16:09.369Z,14.90
2018-04-24T21:18:37.646Z,14.90
2018-04-24T21:21:06.962Z,14.90
2018-04-24T21:23:35.243Z,14.90
2018-04-24T21:26:02.777Z,14.90
2018-04-24T21:28:31.069Z,14.90
2018-04-24T21:31:00.686Z,14.90
2018-04-24T21:33:29.009Z,15.00
2018-04-24T21:35:57.264Z,14.90
2018-04-24T21:38:25.536Z,15.00
2018-04-24T21:40:53.824Z,14.90
2018-04-24T21:43:22.133Z,14.90
2018-04-24T21:45:50.410Z,14.90
2018-04-24T21:48:18.682Z,14.90
2018-04-24T21:50:46.988Z,14.90
2018-04-24T21:53:16.199Z,14.90
2018-04-24T21:55:44.505Z,14.90
2018-04-24T21:58:13.726Z,14.90
2018-04-24T22:00:43.090Z,14.90
2018-04-24T22:03:13.032Z,15.00
2018-04-24T22:05:41.349Z,15.00
2018-04-24T22:08:12.257Z,15.00
2018-04-24T22:10:40.562Z,14.80
2018-04-24T22:13:10.828Z,14.90
2018-04-24T22:15:39.113Z,14.80
2018-04-24T22:18:07.390Z,14.80
2018-04-24T22:20:35.702Z,14.80
2018-04-24T22:23:03.979Z,14.90
2018-04-24T22:25:32.303Z,14.90
2018-04-24T22:28:01.526Z,15.00
2018-04-24T22:30:30.498Z,15.00
2018-04-24T22:32:58.836Z,15.00
2018-04-24T22:35:27.117Z,15.10
2018-04-24T22:37:55.422Z,15.00
2018-04-24T22:40:23.707Z,15.10
2018-04-24T22:42:52.015Z,15.10
2018-04-24T22:45:20.272Z,15.10
2018-04-24T22:47:49.538Z,15.20
2018-04-24T22:50:17.828Z,15.20
2018-04-24T22:52:46.480Z,15.10
2018-04-24T22:55:14.777Z,15.00
2018-04-24T22:57:45.069Z,15.10
2018-04-24T23:00:15.399Z,15.00
2018-04-24T23:02:43.709Z,15.00
2018-04-24T23:05:13.066Z,15.00
2018-04-24T23:07:42.566Z,15.00
2018-04-24T23:10:10.406Z,15.10
2018-04-24T23:12:50.421Z,15.20
2018-04-24T23:15:30.662Z,15.30
2018-04-24T23:18:10.785Z,15.20
2018-04-24T23:20:38.561Z,15.30
2018-04-24T23:23:06.868Z,15.20
2018-04-24T23:25:35.144Z,15.10
2018-04-24T23:28:03.405Z,15.10
2018-04-24T23:30:31.699Z,15.10
2018-04-24T23:32:59.972Z,15.20
2018-04-24T23:35:29.470Z,15.20
2018-04-24T23:38:03.641Z,15.30
2018-04-24T23:40:31.899Z,15.20
2018-04-24T23:43:00.172Z,15.20
2018-04-24T23:45:29.237Z,15.30
2018-04-24T23:47:56.734Z,15.20
2018-04-24T23:50:25.039Z,15.30
2018-04-24T23:52:53.309Z,15.20
2018-04-24T23:55:21.609Z,15.30
2018-04-24T23:57:49.886Z,15.30
